createdAt,value
2019-03-03T00:02:18.339Z,6.40
2019-03-03T00:05:02.841Z,6.12
2019-03-03T00:07:33.359Z,6.07
2019-03-03T00:10:04.186Z,6.25
2019-03-03T00:12:41.969Z,5.37
2019-03-03T00:15:15.497Z,6.08
2019-03-03T00:17:45.946Z,5.30
2019-03-03T00:20:16.593Z,4.60
2019-03-03T00:22:46.865Z,5.27
2019-03-03T00:25:18.089Z,4.85
2019-03-03T00:27:48.678Z,5.27
2019-03-03T00:30:19.469Z,4.77
2019-03-03T00:33:00.458Z,3.90
2019-03-03T00:35:31.684Z,5.40
2019-03-03T00:38:23.789Z,4.67
2019-03-03T00:41:22.374Z,4.03
2019-03-03T00:44:11.644Z,4.70
2019-03-03T00:46:54.520Z,4.03
2019-03-03T00:49:32.526Z,4.47
2019-03-03T00:52:29.278Z,4.67
2019-03-03T00:55:10.780Z,5.27
2019-03-03T00:58:00.305Z,4.10
2019-03-03T01:00:39.809Z,4.40
2019-03-03T01:03:20.359Z,4.50
2019-03-03T01:05:56.759Z,4.33
2019-03-03T01:08:48.114Z,3.80
2019-03-03T01:11:40.176Z,3.87
2019-03-03T01:14:32.669Z,4.47
2019-03-03T01:17:19.636Z,4.17
2019-03-03T01:20:04.509Z,4.03
2019-03-03T01:22:59.586Z,4.47
2019-03-03T01:25:30.006Z,4.10
2019-03-03T01:28:07.503Z,4.23
2019-03-03T01:30:32.596Z,4.03
2019-03-03T01:33:03.209Z,4.30
2019-03-03T01:35:39.676Z,3.70
2019-03-03T01:38:13.098Z,3.87
2019-03-03T01:40:44.958Z,3.80
2019-03-03T01:43:17.448Z,4.28
2019-03-03T01:45:47.734Z,3.13
2019-03-03T01:48:18.410Z,2.92
2019-03-03T01:50:48.687Z,3.40
2019-03-03T01:53:19.077Z,3.50
2019-03-03T01:55:50.588Z,3.43
2019-03-03T01:58:21.194Z,3.35
2019-03-03T02:00:52.032Z,3.33
2019-03-03T02:03:22.939Z,3.20
2019-03-03T02:05:54.690Z,3.67
2019-03-03T02:08:26.537Z,2.88
2019-03-03T02:10:57.488Z,3.00
2019-03-03T02:13:28.396Z,2.93
2019-03-03T02:15:59.041Z,2.50
2019-03-03T02:18:29.589Z,2.87
2019-03-03T02:21:02.803Z,2.60
2019-03-03T02:23:34.146Z,2.80
2019-03-03T02:26:04.808Z,3.03
2019-03-03T02:28:36.696Z,2.93
2019-03-03T02:31:08.720Z,3.20
2019-03-03T02:33:39.238Z,3.07
2019-03-03T02:36:09.806Z,3.10
2019-03-03T02:38:41.212Z,3.26
2019-03-03T02:41:12.383Z,3.33
2019-03-03T02:43:45.893Z,2.83
2019-03-03T02:46:16.351Z,3.07
2019-03-03T02:48:48.531Z,3.47
2019-03-03T02:51:20.251Z,2.73
2019-03-03T02:53:50.567Z,2.97
2019-03-03T02:56:21.253Z,2.98
2019-03-03T02:58:53.005Z,2.80
2019-03-03T03:01:29.731Z,2.50
2019-03-03T03:04:00.005Z,2.87
2019-03-03T03:06:38.575Z,2.83
2019-03-03T03:09:18.241Z,3.07
2019-03-03T03:12:01.251Z,3.27
2019-03-03T03:14:53.321Z,3.50
2019-03-03T03:17:44.659Z,3.50
2019-03-03T03:20:48.536Z,3.40
2019-03-03T03:23:43.239Z,3.50
2019-03-03T03:26:27.804Z,3.67
2019-03-03T03:29:34.854Z,3.58
2019-03-03T03:32:18.006Z,3.10
2019-03-03T03:35:19.848Z,3.30
2019-03-03T03:38:09.190Z,3.40
2019-03-03T03:40:58.409Z,3.53
2019-03-03T03:43:48.283Z,3.50
2019-03-03T03:46:43.455Z,3.07
2019-03-03T03:49:40.426Z,4.23
2019-03-03T03:52:27.385Z,3.20
2019-03-03T03:55:21.732Z,3.60
2019-03-03T03:58:04.743Z,3.73
2019-03-03T04:00:56.738Z,4.53
2019-03-03T04:03:52.112Z,3.57
2019-03-03T04:06:45.610Z,3.87
2019-03-03T04:09:33.704Z,4.30
2019-03-03T04:12:21.113Z,3.85
2019-03-03T04:15:16.501Z,4.30
2019-03-03T04:18:24.000Z,4.80
2019-03-03T04:21:16.074Z,3.93
2019-03-03T04:24:03.926Z,5.10
2019-03-03T04:26:57.729Z,5.67
2019-03-03T04:29:46.666Z,6.10
2019-03-03T04:32:26.215Z,6.20
2019-03-03T04:35:08.816Z,5.33
2019-03-03T04:38:01.775Z,5.20
2019-03-03T04:40:48.742Z,6.30
2019-03-03T04:43:24.767Z,6.60
2019-03-03T04:46:29.974Z,6.53
2019-03-03T04:49:29.398Z,7.22
2019-03-03T04:52:36.957Z,6.53
2019-03-03T04:55:25.486Z,7.93
2019-03-03T04:58:23.967Z,7.03
2019-03-03T05:01:31.823Z,5.93
2019-03-03T05:04:13.531Z,6.30
2019-03-03T05:06:53.529Z,5.83
2019-03-03T05:10:03.428Z,5.63
2019-03-03T05:13:07.629Z,5.60
2019-03-03T05:15:55.260Z,6.50
2019-03-03T05:18:53.593Z,6.43
2019-03-03T05:21:27.996Z,6.70
2019-03-03T05:24:01.996Z,6.60
2019-03-03T05:26:35.129Z,6.70
2019-03-03T05:29:07.764Z,7.90
2019-03-03T05:31:38.106Z,7.23
2019-03-03T05:34:12.422Z,6.97
2019-03-03T05:36:42.796Z,7.70
2019-03-03T05:39:15.772Z,7.42
2019-03-03T05:41:47.985Z,8.77
2019-03-03T05:44:19.867Z,7.70
2019-03-03T05:46:50.359Z,7.37
2019-03-03T05:49:23.780Z,7.83
2019-03-03T05:51:54.222Z,6.60
2019-03-03T05:54:24.994Z,8.87
2019-03-03T05:57:14.420Z,8.43
2019-03-03T05:59:43.066Z,8.53
2019-03-03T06:02:28.295Z,8.00
2019-03-03T06:04:47.268Z,7.80
2019-03-03T06:07:20.903Z,9.00
2019-03-03T06:09:53.176Z,8.87
2019-03-03T06:12:23.676Z,8.30
2019-03-03T06:14:56.293Z,9.63
2019-03-03T06:17:27.864Z,8.90
2019-03-03T06:19:58.526Z,7.93
2019-03-03T06:22:31.039Z,7.57
2019-03-03T06:25:01.921Z,6.62
2019-03-03T06:27:32.440Z,6.30
2019-03-03T06:30:05.401Z,6.43
2019-03-03T06:32:37.065Z,5.67
2019-03-03T06:35:09.894Z,6.10
2019-03-03T06:37:41.599Z,5.10
2019-03-03T06:40:12.540Z,4.37
2019-03-03T06:42:45.504Z,5.40
2019-03-03T06:45:18.196Z,4.57
2019-03-03T06:47:48.968Z,5.20
2019-03-03T06:50:19.550Z,4.77
2019-03-03T06:52:51.454Z,4.90
2019-03-03T06:55:29.951Z,4.80
2019-03-03T06:58:03.165Z,4.90
2019-03-03T07:00:35.240Z,5.13
2019-03-03T07:03:09.958Z,4.40
2019-03-03T07:05:48.114Z,3.90
2019-03-03T07:08:18.792Z,4.00
2019-03-03T07:10:54.058Z,5.03
2019-03-03T07:13:21.538Z,5.13
2019-03-03T07:15:55.164Z,4.33
2019-03-03T07:19:35.874Z,4.35
2019-03-03T07:21:00.382Z,4.07
2019-03-03T07:23:38.169Z,3.93
2019-03-03T07:26:09.541Z,4.27
2019-03-03T07:28:39.853Z,4.30
2019-03-03T07:31:11.666Z,4.30
2019-03-03T07:33:45.574Z,4.70
2019-03-03T07:36:16.164Z,4.30
2019-03-03T07:38:48.189Z,4.47
2019-03-03T07:41:18.923Z,4.00
2019-03-03T07:43:49.479Z,4.53
2019-03-03T07:46:20.033Z,3.77
2019-03-03T07:48:50.684Z,3.97
2019-03-03T07:51:22.737Z,4.07
2019-03-03T07:53:53.030Z,4.63
2019-03-03T07:56:23.932Z,4.17
2019-03-03T07:58:54.784Z,3.97
2019-03-03T08:01:28.036Z,4.15
2019-03-03T08:04:02.636Z,3.63
2019-03-03T08:06:33.223Z,4.00
2019-03-03T08:09:04.960Z,4.00
2019-03-03T08:11:39.020Z,3.97
2019-03-03T08:14:09.388Z,3.67
2019-03-03T08:16:42.435Z,4.08
2019-03-03T08:19:14.346Z,3.70
2019-03-03T08:21:55.820Z,4.47
2019-03-03T08:24:19.504Z,3.77
2019-03-03T08:26:53.925Z,5.08
2019-03-03T08:29:24.204Z,4.03
2019-03-03T08:31:54.829Z,4.08
2019-03-03T08:34:25.198Z,4.00
2019-03-03T08:37:05.146Z,4.00
2019-03-03T08:39:35.178Z,4.23
2019-03-03T08:42:23.214Z,4.70
2019-03-03T08:45:21.263Z,4.63
2019-03-03T08:48:01.768Z,4.23
2019-03-03T08:50:36.719Z,4.27
2019-03-03T08:53:33.943Z,4.40
2019-03-03T08:56:26.230Z,4.60
2019-03-03T08:59:17.184Z,6.03
2019-03-03T09:01:53.988Z,5.70
2019-03-03T09:04:43.620Z,6.22
2019-03-03T09:07:19.677Z,6.20
2019-03-03T09:10:05.801Z,5.90
2019-03-03T09:13:02.857Z,5.90
2019-03-03T09:16:01.158Z,6.03
2019-03-03T09:18:56.397Z,5.50
2019-03-03T09:21:42.814Z,6.93
2019-03-03T09:24:37.973Z,6.30
2019-03-03T09:27:26.197Z,6.13
2019-03-03T09:30:33.894Z,5.57
2019-03-03T09:33:26.178Z,5.50
2019-03-03T09:36:18.563Z,5.40
2019-03-03T09:39:06.545Z,5.40
2019-03-03T09:41:58.217Z,4.85
2019-03-03T09:44:47.095Z,5.40
2019-03-03T09:47:41.366Z,5.03
2019-03-03T09:50:25.455Z,5.00
2019-03-03T09:53:25.476Z,5.17
2019-03-03T09:56:08.890Z,5.00
2019-03-03T09:59:07.543Z,4.60
2019-03-03T10:02:19.148Z,4.90
2019-03-03T10:05:07.361Z,4.67
2019-03-03T10:08:02.855Z,4.23
2019-03-03T10:10:46.231Z,4.87
2019-03-03T10:13:28.573Z,4.20
2019-03-03T10:16:16.646Z,4.65
2019-03-03T10:19:11.958Z,4.17
2019-03-03T10:22:06.505Z,3.70
2019-03-03T10:24:54.727Z,4.20
2019-03-03T10:27:46.326Z,3.70
2019-03-03T10:30:35.686Z,4.20
2019-03-03T10:33:43.451Z,3.87
2019-03-03T10:36:27.589Z,4.10
2019-03-03T10:39:31.423Z,3.10
2019-03-03T10:42:21.056Z,3.12
2019-03-03T10:45:19.081Z,3.90
2019-03-03T10:48:01.284Z,3.63
2019-03-03T10:50:50.282Z,3.47
2019-03-03T10:53:57.483Z,3.04
2019-03-03T10:56:47.641Z,3.42
2019-03-03T10:59:41.178Z,2.70
2019-03-03T11:02:38.318Z,2.90
2019-03-03T11:05:27.946Z,2.90
2019-03-03T11:08:18.938Z,2.93
2019-03-03T11:11:08.197Z,2.60
2019-03-03T11:14:13.486Z,2.90
2019-03-03T11:17:09.909Z,2.50
2019-03-03T11:20:04.479Z,2.63
2019-03-03T11:22:55.193Z,2.70
2019-03-03T11:25:43.912Z,2.67
2019-03-03T11:28:28.802Z,2.22
2019-03-03T11:31:24.085Z,2.57
2019-03-03T11:34:11.803Z,2.30
2019-03-03T11:37:00.005Z,2.20
2019-03-03T11:39:52.887Z,2.27
2019-03-03T11:42:41.581Z,1.87
2019-03-03T11:45:34.996Z,1.80
2019-03-03T11:48:19.832Z,2.20
2019-03-03T11:51:11.216Z,2.13
2019-03-03T11:53:50.640Z,2.17
2019-03-03T11:56:34.940Z,2.30
2019-03-03T11:59:36.283Z,2.00
2019-03-03T12:02:29.290Z,2.25
2019-03-03T12:05:24.735Z,2.00
2019-03-03T12:08:22.769Z,2.00
2019-03-03T12:11:12.317Z,1.87
2019-03-03T12:14:11.402Z,2.37
2019-03-03T12:17:19.066Z,2.20
2019-03-03T12:20:04.152Z,2.17
2019-03-03T12:23:09.660Z,1.87
2019-03-03T12:26:08.847Z,2.37
2019-03-03T12:29:04.493Z,2.50
2019-03-03T12:31:52.655Z,2.40
2019-03-03T12:34:47.038Z,2.00
2019-03-03T12:37:39.344Z,2.30
2019-03-03T12:40:32.411Z,2.33
2019-03-03T12:43:18.683Z,2.10
2019-03-03T12:46:14.193Z,2.27
2019-03-03T12:49:22.065Z,2.40
2019-03-03T12:51:58.853Z,2.50
2019-03-03T12:54:47.036Z,2.80
2019-03-03T12:57:49.089Z,2.30
2019-03-03T13:00:39.753Z,2.80
2019-03-03T13:03:27.956Z,3.30
2019-03-03T13:06:07.686Z,3.20
2019-03-03T13:09:04.075Z,3.20
2019-03-03T13:11:52.447Z,4.30
2019-03-03T13:14:44.219Z,4.53
2019-03-03T13:17:48.233Z,5.03
2019-03-03T13:20:40.128Z,4.00
2019-03-03T13:23:42.599Z,4.23
2019-03-03T13:26:55.392Z,3.70
2019-03-03T13:29:50.586Z,4.90
2019-03-03T13:32:47.384Z,4.80
2019-03-03T13:35:38.566Z,4.10
2019-03-03T13:38:22.898Z,4.42
2019-03-03T13:41:24.793Z,4.20
2019-03-03T13:44:02.050Z,5.00
2019-03-03T13:46:28.529Z,4.20
2019-03-03T13:49:01.680Z,4.93
2019-03-03T13:51:39.978Z,4.95
2019-03-03T13:54:10.257Z,5.30
2019-03-03T13:56:50.569Z,5.30
2019-03-03T13:59:21.962Z,5.63
2019-03-03T14:01:54.011Z,4.47
2019-03-03T14:04:29.010Z,4.77
2019-03-03T14:07:01.674Z,5.83
2019-03-03T14:09:44.979Z,6.17
2019-03-03T14:12:15.371Z,5.57
2019-03-03T14:14:48.461Z,7.23
2019-03-03T14:17:24.444Z,6.80
2019-03-03T14:19:51.457Z,7.17
2019-03-03T14:22:27.416Z,8.00
2019-03-03T14:24:59.702Z,9.70
2019-03-03T14:27:44.767Z,9.57
2019-03-03T14:30:40.316Z,9.53
2019-03-03T14:32:59.726Z,10.00
2019-03-03T14:35:30.107Z,10.27
2019-03-03T14:38:02.206Z,9.07
2019-03-03T14:40:32.834Z,8.37
2019-03-03T14:43:06.401Z,8.53
2019-03-03T14:45:36.715Z,9.10
2019-03-03T14:48:17.913Z,8.57
2019-03-03T14:50:48.377Z,8.50
2019-03-03T14:53:18.702Z,8.37
2019-03-03T14:55:57.277Z,7.33
2019-03-03T14:58:27.854Z,6.85
2019-03-03T15:00:59.272Z,6.03
2019-03-03T15:03:33.877Z,5.78
2019-03-03T15:06:04.418Z,6.93
2019-03-03T15:08:41.442Z,6.42
2019-03-03T15:11:22.927Z,6.12
2019-03-03T15:13:53.347Z,7.60
2019-03-03T15:16:26.493Z,7.23
2019-03-03T15:18:57.214Z,7.20
2019-03-03T15:21:27.571Z,7.17
2019-03-03T15:23:58.263Z,7.72
2019-03-03T15:26:33.032Z,7.62
2019-03-03T15:29:16.057Z,7.15
2019-03-03T15:31:42.232Z,7.63
2019-03-03T15:34:20.847Z,7.00
2019-03-03T15:36:51.474Z,7.03
2019-03-03T15:39:24.694Z,6.35
2019-03-03T15:41:59.219Z,6.23
2019-03-03T15:44:33.988Z,6.70
2019-03-03T15:47:12.568Z,6.83
2019-03-03T15:49:39.473Z,6.60
2019-03-03T15:52:09.987Z,6.93
2019-03-03T15:54:44.442Z,7.44
2019-03-03T15:57:23.007Z,6.73
2019-03-03T15:59:53.602Z,6.36
2019-03-03T16:02:23.978Z,6.17
2019-03-03T16:04:56.447Z,5.73
2019-03-03T16:07:26.816Z,7.13
2019-03-03T16:10:01.217Z,5.67
2019-03-03T16:12:32.611Z,5.77
2019-03-03T16:15:04.628Z,6.80
2019-03-03T16:17:37.128Z,6.47
2019-03-03T16:20:09.245Z,6.83
2019-03-03T16:22:39.691Z,6.10
2019-03-03T16:25:11.641Z,6.33
2019-03-03T16:27:42.549Z,5.77
2019-03-03T16:30:15.255Z,6.30
2019-03-03T16:32:53.841Z,6.00
2019-03-03T16:35:24.850Z,6.00
2019-03-03T16:37:58.325Z,6.10
2019-03-03T16:40:39.638Z,7.03
2019-03-03T16:43:06.614Z,6.27
2019-03-03T16:45:44.996Z,6.13
2019-03-03T16:48:15.659Z,6.27
2019-03-03T16:50:46.699Z,5.25
2019-03-03T16:53:17.144Z,6.47
2019-03-03T16:55:47.752Z,5.43
2019-03-03T16:58:19.215Z,4.77
2019-03-03T17:00:53.007Z,5.03
2019-03-03T17:03:23.689Z,5.23
2019-03-03T17:05:55.467Z,5.10
2019-03-03T17:08:27.026Z,5.20
2019-03-03T17:10:57.538Z,4.97
2019-03-03T17:13:31.655Z,4.97
2019-03-03T17:16:03.303Z,6.23
2019-03-03T17:18:33.733Z,5.97
2019-03-03T17:21:04.238Z,6.37
2019-03-03T17:23:35.049Z,6.80
2019-03-03T17:26:07.125Z,6.50
2019-03-03T17:28:38.013Z,5.83
2019-03-03T17:31:38.629Z,5.27
2019-03-03T17:33:44.083Z,5.80
2019-03-03T17:36:17.268Z,5.33
2019-03-03T17:38:47.867Z,5.13
2019-03-03T17:41:20.157Z,4.43
2019-03-03T17:43:55.514Z,4.58
2019-03-03T17:46:25.891Z,4.37
2019-03-03T17:48:56.341Z,5.42
2019-03-03T17:51:26.748Z,5.03
2019-03-03T17:53:58.922Z,6.30
2019-03-03T17:56:29.378Z,5.57
2019-03-03T17:58:59.858Z,4.53
2019-03-03T18:01:49.315Z,4.03
2019-03-03T18:04:20.027Z,4.28
2019-03-03T18:06:52.941Z,4.40
2019-03-03T18:09:25.259Z,3.93
2019-03-03T18:11:57.001Z,4.00
2019-03-03T18:14:29.357Z,3.93
2019-03-03T18:16:59.979Z,4.03
2019-03-03T18:19:31.801Z,3.64
2019-03-03T18:22:04.778Z,3.40
2019-03-03T18:24:35.246Z,4.00
2019-03-03T18:29:50.024Z,4.08
2019-03-03T18:32:20.870Z,3.50
2019-03-03T18:34:51.438Z,3.15
2019-03-03T18:37:27.076Z,3.30
2019-03-03T18:40:03.113Z,3.43
2019-03-03T18:42:33.517Z,3.57
2019-03-03T18:45:12.292Z,3.63
2019-03-03T18:47:45.215Z,3.20
2019-03-03T18:50:17.641Z,3.40
2019-03-03T18:52:50.472Z,4.13
2019-03-03T18:55:20.910Z,3.23
2019-03-03T18:57:54.203Z,3.50
2019-03-03T19:00:26.603Z,3.67
2019-03-03T19:03:00.235Z,3.57
2019-03-03T19:05:30.871Z,3.47
2019-03-03T19:08:01.212Z,3.10
2019-03-03T19:10:36.270Z,3.13
2019-03-03T19:13:06.782Z,2.97
2019-03-03T19:15:37.234Z,4.00
2019-03-03T19:18:10.258Z,3.10
2019-03-03T19:20:43.161Z,3.70
2019-03-03T19:23:16.713Z,2.70
2019-03-03T19:25:47.346Z,3.20
2019-03-03T19:33:50.493Z,3.23
2019-03-03T19:36:20.821Z,3.27
2019-03-03T19:38:55.606Z,3.47
2019-03-03T19:41:26.103Z,3.17
2019-03-03T19:43:56.556Z,3.87
2019-03-03T19:46:35.912Z,3.23
2019-03-03T19:49:12.934Z,3.33
2019-03-03T19:52:05.211Z,3.67
2019-03-03T19:54:46.652Z,3.30
2019-03-03T19:57:17.180Z,2.97
2019-03-03T19:59:53.765Z,3.30
2019-03-03T20:02:28.321Z,3.83
2019-03-03T20:05:03.710Z,3.52
2019-03-03T20:07:42.601Z,3.40
2019-03-03T20:10:23.500Z,3.25
2019-03-03T20:13:04.635Z,3.17
2019-03-03T20:15:39.593Z,3.23
2019-03-03T20:18:13.446Z,3.15
2019-03-03T20:20:47.913Z,2.80
2019-03-03T20:23:27.660Z,3.45
2019-03-03T20:26:04.814Z,3.20
2019-03-03T20:28:42.900Z,3.50
2019-03-03T20:31:22.029Z,3.40
2019-03-03T20:33:55.509Z,2.90
2019-03-03T20:36:30.428Z,3.07
2019-03-03T20:39:06.873Z,2.80
2019-03-03T20:41:39.671Z,2.83
2019-03-03T20:44:22.854Z,2.60
2019-03-03T20:46:50.099Z,3.13
2019-03-03T20:49:20.599Z,2.90
2019-03-03T20:51:52.964Z,3.40
2019-03-03T20:54:27.797Z,3.30
2019-03-03T20:57:01.610Z,2.70
2019-03-03T20:59:33.168Z,2.73
2019-03-03T21:02:06.817Z,2.85
2019-03-03T21:04:42.301Z,3.20
2019-03-03T21:07:12.889Z,2.40
2019-03-03T21:09:45.267Z,2.87
2019-03-03T21:12:16.814Z,3.07
2019-03-03T21:14:47.758Z,3.00
2019-03-03T21:17:23.885Z,2.87
2019-03-03T21:19:56.313Z,3.65
2019-03-03T21:22:26.817Z,3.20
2019-03-03T21:25:02.128Z,3.05
2019-03-03T21:27:32.716Z,2.97
2019-03-03T21:30:11.992Z,3.50
2019-03-03T21:32:42.375Z,3.10
2019-03-03T21:35:15.498Z,3.10
2019-03-03T21:37:47.357Z,3.07
2019-03-03T21:40:20.792Z,2.75
2019-03-03T21:42:51.433Z,2.83
2019-03-03T21:45:24.884Z,2.73
2019-03-03T21:47:58.598Z,2.73
2019-03-03T21:50:29.238Z,2.70
2019-03-03T21:53:07.542Z,2.70
2019-03-03T21:55:39.236Z,2.60
2019-03-03T21:58:11.122Z,2.50
2019-03-03T22:00:42.734Z,2.50
2019-03-03T22:03:15.065Z,2.90
2019-03-03T22:05:47.017Z,2.70
2019-03-03T22:08:17.714Z,2.80
2019-03-03T22:10:48.251Z,2.55
2019-03-03T22:13:21.381Z,2.70
2019-03-03T22:15:53.145Z,2.62
2019-03-03T22:18:23.472Z,2.70
2019-03-03T22:20:56.293Z,2.42
2019-03-03T22:23:28.640Z,2.70
2019-03-03T22:26:01.591Z,2.67
2019-03-03T22:28:37.868Z,2.73
2019-03-03T22:31:16.243Z,2.60
2019-03-03T22:33:53.184Z,2.33
2019-03-03T22:36:28.453Z,2.33
2019-03-03T22:38:59.009Z,2.70
2019-03-03T22:41:39.347Z,2.47
2019-03-03T22:44:13.263Z,2.20
2019-03-03T22:46:52.093Z,2.50
2019-03-03T22:49:41.731Z,2.57
2019-03-03T22:52:11.924Z,2.63
2019-03-03T22:54:48.587Z,2.77
2019-03-03T22:57:40.330Z,2.43
2019-03-03T23:00:55.080Z,2.40
2019-03-03T23:03:43.247Z,2.33
2019-03-03T23:06:32.222Z,2.50
2019-03-03T23:09:42.839Z,2.20
2019-03-03T23:12:47.224Z,2.53
2019-03-03T23:16:02.597Z,2.03
2019-03-03T23:19:25.431Z,2.70
2019-03-03T23:22:48.586Z,2.40
2019-03-03T23:25:50.821Z,2.30
2019-03-03T23:28:41.008Z,2.83
2019-03-03T23:31:12.021Z,3.22
2019-03-03T23:33:49.911Z,2.67
2019-03-03T23:36:29.528Z,2.67
2019-03-03T23:39:24.258Z,2.42
2019-03-03T23:41:58.240Z,2.40
2019-03-03T23:44:39.967Z,2.40
2019-03-03T23:47:22.640Z,2.40
2019-03-03T23:50:07.968Z,2.37
2019-03-03T23:52:45.945Z,2.30
2019-03-03T23:55:29.723Z,2.00
2019-03-03T23:58:00.248Z,2.17
